This is the latest recevied weather packets stored in our database for station/object HS2GJW-1. If no packets are shown the sender has not sent any weather packets the latest 10 day(s).
| Time | Temp. | Humidity | Pressure | Rain* | Wind** | Luminosity | Snow |
|---|---|---|---|---|---|---|---|
| 1777603348 | 33.33° C | 84% | 1011 hPa | - | - | 0 W/m² | - |
| 1777602723 | 32.78° C | 86% | 1011 hPa | - | - | 0 W/m² | - |
| 1777602096 | 32.78° C | 88% | 1011 hPa | - | - | 0 W/m² | - |
| 1777602007 | 32.78° C | 87% | 1011 hPa | - | - | 0 W/m² | - |
| 1777601382 | 32.78° C | 88% | 1012 hPa | - | - | 0 W/m² | - |
| 1777600755 | 31.67° C | 88% | 1012 hPa | - | - | 0 W/m² | - |
| 1777600129 | 31.67° C | 87% | 1012 hPa | - | - | 0 W/m² | - |
| 1777599502 | 31.67° C | 86% | 1012 hPa | - | - | 0 W/m² | - |
| 1777598875 | 31.67° C | 87% | 1012 hPa | - | - | 0 W/m² | - |
| 1777598247 | 31.11° C | 88% | 1012 hPa | - | - | 0 W/m² | - |
| 1777597622 | 30.56° C | 90% | 1012 hPa | - | - | 0 W/m² | - |
| 1777596993 | 30.56° C | 92% | 1012 hPa | - | - | 0 W/m² | - |
| 1777596365 | 30.56° C | 92% | 1011 hPa | - | - | 0 W/m² | - |
| 1777595738 | 30.56° C | 95% | 1011 hPa | - | - | 0 W/m² | - |
| 1777595110 | 30° C | 97% | 1011 hPa | - | - | 0 W/m² | - |
| 1777594483 | 30° C | 99% | 1011 hPa | - | - | 0 W/m² | - |
| 1777593857 | 29.44° C | 99% | 1011 hPa | - | - | 0 W/m² | - |
| 1777593229 | 29.44° C | 99% | 1011 hPa | - | - | 0 W/m² | - |
| 1777592599 | 28.89° C | 99% | 1011 hPa | - | - | 0 W/m² | - |
| 1777553557 | 31.67° C | 88% | 1009 hPa | - | - | 0 W/m² | - |
| 1777552933 | 31.67° C | 86% | 1009 hPa | - | - | 0 W/m² | - |
| 1777552309 | 31.67° C | 84% | 1008 hPa | - | - | 0 W/m² | - |
| 1777551684 | 31.67° C | 84% | 1008 hPa | - | - | 0 W/m² | - |
| 1777551060 | 31.67° C | 84% | 1008 hPa | - | - | 0 W/m² | - |
| 1777550436 | 30.56° C | 91% | 1008 hPa | - | - | 0 W/m² | - |
* Rain since midnight (hover to see other rain measurements)
** Current wind speed in m/s (hover to see current wind gust speed)